Time;durP1;ratioP1;P1;durP2;ratioP2;P2;SDS_P1;SDS_P2;PMS_P1;PMS_P2;Temp;Humidity;BMP_temperature;BMP_pressure;BME280_temperature;BME280_humidity;BME280_pressure;Samples;Min_cycle;Max_cycle;Signal;HPM_P1;HPM_P2
2022/10/24 00:02:12;;;;;;;;;;;18.00;99.90;;;;;;5114414;28;19962;-24
2022/10/24 00:04:39;;;;;;;;;;;18.00;99.90;;;;;;5113764;28;19912;-24
2022/10/24 00:07:05;;;;;;;;;;;18.00;99.90;;;;;;5114214;28;19919;-24
2022/10/24 00:09:31;;;;;;;;;;;18.00;99.90;;;;;;5112722;28;19912;-24
2022/10/24 00:11:57;;;;;;;;;;;18.00;99.90;;;;;;5114035;28;19908;-24
2022/10/24 00:14:23;;;;;;;;;;;18.00;99.90;;;;;;5114333;28;19923;-24
2022/10/24 00:16:48;;;;;;;;;;;18.00;99.90;;;;;;5114740;28;19912;-24
2022/10/24 00:19:14;;;;;;;;;;;18.10;99.90;;;;;;5122454;28;19917;-24
2022/10/24 00:21:39;;;;;;;;;;;18.10;99.90;;;;;;5118289;28;19965;-24
2022/10/24 00:24:06;;;;;;;;;;;18.00;99.90;;;;;;5113850;28;19934;-24
2022/10/24 00:26:31;;;;;;;;;;;18.00;99.90;;;;;;5114861;28;19915;-24
2022/10/24 00:28:57;;;;;;;;;;;18.00;99.90;;;;;;5096802;28;19908;-24
2022/10/24 00:31:23;;;;;;;;;;;18.00;99.90;;;;;;5114967;28;19916;-24
2022/10/24 00:33:48;;;;;;;;;;;18.00;99.90;;;;;;5114001;28;19946;-24
2022/10/24 00:36:16;;;;;;;;;;;18.10;99.90;;;;;;5114715;28;20391;-24
2022/10/24 00:38:41;;;;;;;;;;;18.00;99.90;;;;;;5114303;28;19977;-24
2022/10/24 00:41:07;;;;;;;;;;;18.00;99.90;;;;;;5113960;28;20369;-24
2022/10/24 00:43:32;;;;;;;;;;;18.10;99.90;;;;;;5112987;28;19908;-24
2022/10/24 00:45:59;;;;;;;;;;;18.00;99.90;;;;;;5113521;28;19908;-24
2022/10/24 00:48:34;;;;;;;;;;;18.00;99.90;;;;;;5113265;28;20345;-24
2022/10/24 00:51:01;;;;;;;;;;;18.00;99.90;;;;;;5113222;28;19994;-24
2022/10/24 00:53:28;;;;;;;;;;;18.00;99.90;;;;;;5113165;28;19970;-24
2022/10/24 00:55:55;;;;;;;;;;;18.00;99.90;;;;;;5113337;28;19919;-24
2022/10/24 00:58:23;;;;;;;;;;;18.00;99.90;;;;;;5113352;27;19923;-24
2022/10/24 01:00:48;;;;;;;;;;;18.00;99.90;;;;;;5111786;28;19951;-24
2022/10/24 01:03:14;;;;;;;;;;;18.00;99.90;;;;;;5112526;28;19950;-24
2022/10/24 01:06:00;;;;;;;;;;;18.00;99.90;;;;;;5113135;28;19908;-24
2022/10/24 01:08:31;;;;;;;;;;;18.00;99.90;;;;;;5112830;28;19919;-24
2022/10/24 01:10:59;;;;;;;;;;;18.00;99.90;;;;;;5112867;28;19919;-24
2022/10/24 01:13:43;;;;;;;;;;;18.00;99.90;;;;;;5112440;28;20242;-24
2022/10/24 01:16:22;;;;;;;;;;;18.00;99.90;;;;;;5112510;28;19939;-24
2022/10/24 01:18:52;;;;;;;;;;;18.00;99.90;;;;;;5112771;28;19914;-24
2022/10/24 01:21:26;;;;;;;;;;;18.00;99.90;;;;;;5112607;28;19912;-24
2022/10/24 01:23:51;;;;;;;;;;;18.00;99.90;;;;;;5112261;28;19908;-24
2022/10/24 01:26:17;;;;;;;;;;;18.00;99.90;;;;;;5112738;28;20333;-24
2022/10/24 01:29:02;;;;;;;;;;;18.00;99.90;;;;;;5112622;28;19919;-24
2022/10/24 01:31:31;;;;;;;;;;;18.00;99.90;;;;;;5112271;28;19916;-24
2022/10/24 01:34:07;;;;;;;;;;;18.00;99.90;;;;;;5111990;28;20292;-24
2022/10/24 01:36:44;;;;;;;;;;;18.00;99.90;;;;;;5112513;28;19933;-24
2022/10/24 01:39:16;;;;;;;;;;;18.00;99.90;;;;;;5112595;28;19908;-24
2022/10/24 01:41:42;;;;;;;;;;;18.00;99.90;;;;;;5112609;28;20010;-23
2022/10/24 01:44:17;;;;;;;;;;;18.00;99.90;;;;;;5111821;28;20002;-24
2022/10/24 01:46:48;;;;;;;;;;;18.00;99.90;;;;;;5110818;28;19908;-24
2022/10/24 01:49:16;;;;;;;;;;;18.00;99.90;;;;;;5112285;28;19993;-24
2022/10/24 01:51:42;;;;;;;;;;;17.90;99.90;;;;;;5112344;28;20006;-24
2022/10/24 01:54:08;;;;;;;;;;;18.00;99.90;;;;;;5111683;28;20021;-24
2022/10/24 01:56:34;;;;;;;;;;;17.90;99.90;;;;;;5112162;28;19912;-24
2022/10/24 01:59:06;;;;;;;;;;;18.00;99.90;;;;;;5112001;28;19908;-24
2022/10/24 02:01:33;;;;;;;;;;;18.00;99.90;;;;;;5111962;28;19911;-24
2022/10/24 02:04:02;;;;;;;;;;;18.00;99.90;;;;;;5111477;28;19957;-24
2022/10/24 02:06:31;;;;;;;;;;;17.90;99.90;;;;;;5112022;28;19912;-24
2022/10/24 02:08:58;;;;;;;;;;;18.00;99.90;;;;;;5112093;28;19927;-24
2022/10/24 02:11:24;;;;;;;;;;;18.00;99.90;;;;;;5111555;28;19912;-24
2022/10/24 02:13:55;;;;;;;;;;;18.00;99.90;;;;;;5111877;28;20407;-24
2022/10/24 02:16:21;;;;;;;;;;;18.00;99.90;;;;;;5111830;28;19912;-24
2022/10/24 02:18:48;;;;;;;;;;;17.90;99.90;;;;;;5111711;28;19991;-24
2022/10/24 02:21:13;;;;;;;;;;;17.90;99.90;;;;;;5111846;28;20042;-24
2022/10/24 02:23:39;;;;;;;;;;;18.00;99.90;;;;;;5111351;28;19951;-24
2022/10/24 02:26:07;;;;;;;;;;;18.00;99.90;;;;;;5112082;28;19908;-24
2022/10/24 02:28:36;;;;;;;;;;;18.00;99.90;;;;;;5111546;28;19916;-24
2022/10/24 02:31:03;;;;;;;;;;;18.00;99.90;;;;;;5111501;28;19920;-24
2022/10/24 02:33:29;;;;;;;;;;;18.00;99.90;;;;;;5111294;28;20011;-24
2022/10/24 02:35:56;;;;;;;;;;;18.00;99.90;;;;;;5111789;28;20403;-24
2022/10/24 02:38:23;;;;;;;;;;;17.90;99.90;;;;;;5111501;28;19911;-24
2022/10/24 02:40:50;;;;;;;;;;;18.00;99.90;;;;;;5111496;28;20051;-24
2022/10/24 02:43:17;;;;;;;;;;;18.00;99.90;;;;;;5111015;28;19915;-24
2022/10/24 02:45:43;;;;;;;;;;;18.00;99.90;;;;;;5111509;28;19994;-24
2022/10/24 02:48:12;;;;;;;;;;;17.90;99.90;;;;;;5111430;28;19943;-24
2022/10/24 02:50:38;;;;;;;;;;;17.90;99.90;;;;;;5111364;28;19912;-24
2022/10/24 02:53:04;;;;;;;;;;;17.90;99.90;;;;;;5109723;28;19908;-24
2022/10/24 02:55:30;;;;;;;;;;;17.90;99.90;;;;;;5111288;28;19927;-24
2022/10/24 02:57:55;;;;;;;;;;;17.90;99.90;;;;;;5111383;28;19912;-24
2022/10/24 03:00:21;;;;;;;;;;;17.90;99.90;;;;;;5111356;28;20315;-24
2022/10/24 03:02:47;;;;;;;;;;;17.90;99.90;;;;;;5111069;28;19918;-24
2022/10/24 03:05:12;;;;;;;;;;;17.90;99.90;;;;;;5111349;28;20285;-24
2022/10/24 03:07:38;;;;;;;;;;;17.90;99.90;;;;;;5111752;28;19957;-24
2022/10/24 03:10:04;;;;;;;;;;;17.90;99.90;;;;;;5111110;28;19915;-24
2022/10/24 03:12:29;;;;;;;;;;;17.90;99.90;;;;;;5110950;28;19914;-24
2022/10/24 03:14:55;;;;;;;;;;;17.90;99.90;;;;;;5111249;28;19942;-24
2022/10/24 03:17:20;;;;;;;;;;;17.90;99.90;;;;;;5111164;28;19912;-23
2022/10/24 03:19:46;;;;;;;;;;;17.90;99.90;;;;;;5111223;28;20361;-24
2022/10/24 03:22:11;;;;;;;;;;;17.90;99.90;;;;;;5111539;28;20300;-24
2022/10/24 03:24:37;;;;;;;;;;;17.90;99.90;;;;;;5113320;28;19961;-23
2022/10/24 03:27:02;;;;;;;;;;;17.90;99.90;;;;;;5115445;28;19916;-24
2022/10/24 03:29:28;;;;;;;;;;;17.90;99.90;;;;;;5114927;28;20356;-24
2022/10/24 03:31:53;;;;;;;;;;;17.90;99.90;;;;;;5119381;28;20036;-24
2022/10/24 03:34:19;;;;;;;;;;;17.90;99.90;;;;;;5115577;28;19915;-24
2022/10/24 03:36:44;;;;;;;;;;;17.90;99.90;;;;;;5115525;28;20281;-24
2022/10/24 03:39:10;;;;;;;;;;;17.90;99.90;;;;;;5114700;28;19960;-24
2022/10/24 03:41:35;;;;;;;;;;;17.90;99.90;;;;;;5114589;28;19984;-24
2022/10/24 03:44:01;;;;;;;;;;;17.90;99.90;;;;;;5114292;28;19915;-24
2022/10/24 03:46:27;;;;;;;;;;;17.90;99.90;;;;;;5114731;28;19908;-24
2022/10/24 03:48:52;;;;;;;;;;;17.90;99.90;;;;;;5114677;28;19915;-24
2022/10/24 03:51:17;;;;;;;;;;;17.90;99.90;;;;;;5114460;28;19907;-24
2022/10/24 03:53:43;;;;;;;;;;;17.90;99.90;;;;;;5113994;28;19908;-24
2022/10/24 03:56:08;;;;;;;;;;;17.80;99.90;;;;;;5114240;28;20312;-24
2022/10/24 03:58:34;;;;;;;;;;;17.90;99.90;;;;;;5114264;28;20392;-24
2022/10/24 04:01:00;;;;;;;;;;;17.90;99.90;;;;;;5114257;28;20401;-24
2022/10/24 04:03:26;;;;;;;;;;;17.90;99.90;;;;;;5113917;28;19916;-24
2022/10/24 04:05:52;;;;;;;;;;;17.90;99.90;;;;;;5114231;28;19918;-24
2022/10/24 04:08:18;;;;;;;;;;;17.90;99.90;;;;;;5114115;28;19915;-24
2022/10/24 04:10:43;;;;;;;;;;;17.90;99.90;;;;;;5114085;28;20359;-24
2022/10/24 04:13:09;;;;;;;;;;;17.90;99.90;;;;;;5113652;28;19961;-24
2022/10/24 04:15:34;;;;;;;;;;;17.90;99.90;;;;;;5114033;28;19923;-23
2022/10/24 04:18:00;;;;;;;;;;;17.80;99.90;;;;;;5114030;28;19912;-24
2022/10/24 04:20:25;;;;;;;;;;;17.90;99.90;;;;;;5113927;28;19955;-24
2022/10/24 04:22:51;;;;;;;;;;;17.90;99.90;;;;;;5113477;28;19908;-24
2022/10/24 04:25:17;;;;;;;;;;;17.90;99.90;;;;;;5113846;28;20393;-24
2022/10/24 04:27:42;;;;;;;;;;;17.90;99.90;;;;;;5113917;28;19916;-24
2022/10/24 04:30:09;;;;;;;;;;;17.80;99.90;;;;;;5113629;28;19915;-24
2022/10/24 04:32:35;;;;;;;;;;;17.80;99.90;;;;;;5111931;28;19911;-24
2022/10/24 04:35:01;;;;;;;;;;;17.90;99.90;;;;;;5113582;28;20395;-24
2022/10/24 04:37:26;;;;;;;;;;;17.80;99.90;;;;;;5113766;28;20052;-24
2022/10/24 04:39:53;;;;;;;;;;;17.80;99.90;;;;;;5113836;27;19912;-24
2022/10/24 04:42:19;;;;;;;;;;;17.80;99.90;;;;;;5113713;28;19908;-24
2022/10/24 04:44:45;;;;;;;;;;;17.90;99.90;;;;;;5113450;28;19995;-24
2022/10/24 04:47:10;;;;;;;;;;;17.90;99.90;;;;;;5113967;28;20284;-24
2022/10/24 04:49:36;;;;;;;;;;;17.80;99.90;;;;;;5113520;28;19908;-24
2022/10/24 04:52:01;;;;;;;;;;;17.90;99.90;;;;;;5113540;28;19908;-24
2022/10/24 04:54:27;;;;;;;;;;;17.90;99.90;;;;;;5113096;28;19918;-24
2022/10/24 04:56:52;;;;;;;;;;;17.90;99.90;;;;;;5113746;28;19923;-24
2022/10/24 04:59:18;;;;;;;;;;;17.90;99.90;;;;;;5113301;28;19907;-24
2022/10/24 05:01:43;;;;;;;;;;;17.80;99.90;;;;;;5113153;28;20451;-24
2022/10/24 05:04:09;;;;;;;;;;;17.80;99.90;;;;;;5112729;28;19919;-24
2022/10/24 05:06:34;;;;;;;;;;;17.90;99.90;;;;;;5113235;28;19927;-24
2022/10/24 05:09:00;;;;;;;;;;;17.90;99.90;;;;;;5113026;28;19908;-24
2022/10/24 05:11:25;;;;;;;;;;;17.80;99.90;;;;;;5113110;28;20296;-24
2022/10/24 05:13:51;;;;;;;;;;;17.80;99.90;;;;;;5112555;28;19907;-24
2022/10/24 05:16:16;;;;;;;;;;;17.80;99.90;;;;;;5112901;28;19958;-24
2022/10/24 05:18:42;;;;;;;;;;;17.80;99.90;;;;;;5112865;28;19915;-24
2022/10/24 05:21:07;;;;;;;;;;;17.80;99.90;;;;;;5113279;28;20034;-24
2022/10/24 05:23:33;;;;;;;;;;;17.80;99.90;;;;;;5112163;28;19907;-24
2022/10/24 05:25:58;;;;;;;;;;;17.90;99.90;;;;;;5112673;28;19907;-24
2022/10/24 05:28:24;;;;;;;;;;;17.90;99.90;;;;;;5112602;28;19911;-24
2022/10/24 05:30:49;;;;;;;;;;;17.90;99.90;;;;;;5112342;28;20299;-24
2022/10/24 05:33:15;;;;;;;;;;;17.80;99.90;;;;;;5112065;28;20296;-23
2022/10/24 05:35:40;;;;;;;;;;;17.80;99.90;;;;;;5112452;28;19937;-23
2022/10/24 05:38:06;;;;;;;;;;;17.80;99.90;;;;;;5112235;28;19912;-23
2022/10/24 05:40:32;;;;;;;;;;;17.80;99.90;;;;;;5112337;28;20395;-24
2022/10/24 05:42:57;;;;;;;;;;;17.80;99.90;;;;;;5111968;28;19960;-24
2022/10/24 05:45:23;;;;;;;;;;;17.80;99.90;;;;;;5112152;28;19907;-24
2022/10/24 05:47:48;;;;;;;;;;;17.80;99.90;;;;;;5111686;28;19915;-24
2022/10/24 05:50:14;;;;;;;;;;;17.80;99.90;;;;;;5112639;28;20393;-24
2022/10/24 05:52:41;;;;;;;;;;;17.80;99.90;;;;;;5111598;28;20327;-24
2022/10/24 05:55:07;;;;;;;;;;;17.90;99.90;;;;;;5112093;28;19934;-24
2022/10/24 05:57:32;;;;;;;;;;;17.80;99.90;;;;;;5111990;28;20002;-24
2022/10/24 05:59:58;;;;;;;;;;;17.80;99.90;;;;;;5111855;28;20003;-24
2022/10/24 06:02:24;;;;;;;;;;;17.80;99.90;;;;;;5112321;28;20357;-24
2022/10/24 06:04:49;;;;;;;;;;;17.80;99.90;;;;;;5111811;28;19908;-24
2022/10/24 06:07:15;;;;;;;;;;;17.80;99.90;;;;;;5111847;28;20289;-24
2022/10/24 06:09:41;;;;;;;;;;;17.80;99.90;;;;;;5111956;28;19916;-24
2022/10/24 06:12:08;;;;;;;;;;;17.80;99.90;;;;;;5111904;28;19961;-24
2022/10/24 06:14:34;;;;;;;;;;;17.80;99.90;;;;;;5111448;28;19918;-24
2022/10/24 06:17:00;;;;;;;;;;;17.80;99.90;;;;;;5111758;28;19908;-24
2022/10/24 06:19:25;;;;;;;;;;;17.80;99.90;;;;;;5111722;28;19918;-24
2022/10/24 06:21:51;;;;;;;;;;;17.80;99.90;;;;;;5111577;28;20380;-24
2022/10/24 06:24:16;;;;;;;;;;;17.80;99.90;;;;;;5110187;28;19911;-24
2022/10/24 06:26:42;;;;;;;;;;;17.80;99.90;;;;;;5111677;28;19908;-24
2022/10/24 06:29:07;;;;;;;;;;;17.80;99.90;;;;;;5111547;28;19907;-24
2022/10/24 06:31:34;;;;;;;;;;;17.80;99.90;;;;;;5111569;28;19922;-24
2022/10/24 06:34:00;;;;;;;;;;;17.80;99.90;;;;;;5111161;28;19912;-24
2022/10/24 06:36:25;;;;;;;;;;;17.80;99.90;;;;;;5111329;28;19922;-24
2022/10/24 06:38:53;;;;;;;;;;;17.80;99.90;;;;;;5111486;28;20392;-24
2022/10/24 06:41:18;;;;;;;;;;;17.80;99.90;;;;;;5111499;28;19912;-24
2022/10/24 06:43:44;;;;;;;;;;;17.80;99.90;;;;;;5111563;28;19908;-24
2022/10/24 06:46:11;;;;;;;;;;;17.80;99.90;;;;;;5112268;28;19919;-24
2022/10/24 06:48:37;;;;;;;;;;;17.80;99.90;;;;;;5112029;28;20381;-24
2022/10/24 06:51:03;;;;;;;;;;;17.80;99.90;;;;;;5110265;28;19908;-24
2022/10/24 06:53:29;;;;;;;;;;;17.80;99.90;;;;;;5111106;28;19907;-24
2022/10/24 06:55:54;;;;;;;;;;;17.80;99.90;;;;;;5111533;28;19916;-24
2022/10/24 06:58:20;;;;;;;;;;;17.80;99.90;;;;;;5112462;28;20330;-23
2022/10/24 07:00:45;;;;;;;;;;;17.80;99.90;;;;;;5115515;28;20293;-24
2022/10/24 07:03:14;;;;;;;;;;;17.80;99.90;;;;;;5115105;28;19935;-24
2022/10/24 07:05:40;;;;;;;;;;;17.80;99.90;;;;;;5115817;28;19939;-24
2022/10/24 07:08:05;;;;;;;;;;;17.70;99.90;;;;;;5116551;28;19922;-24
2022/10/24 07:10:31;;;;;;;;;;;17.70;99.90;;;;;;5116292;28;20014;-24
2022/10/24 07:12:56;;;;;;;;;;;17.70;99.90;;;;;;5115367;28;19958;-24
2022/10/24 07:15:22;;;;;;;;;;;17.70;99.90;;;;;;5115196;28;19964;-24
2022/10/24 07:17:47;;;;;;;;;;;17.70;99.90;;;;;;5113914;28;20025;-24
2022/10/24 07:20:13;;;;;;;;;;;17.70;99.90;;;;;;5115003;28;19930;-24
2022/10/24 07:22:40;;;;;;;;;;;17.70;99.90;;;;;;5114920;28;19918;-24
2022/10/24 07:25:05;;;;;;;;;;;17.70;99.90;;;;;;5115100;28;19908;-24
2022/10/24 07:27:31;;;;;;;;;;;17.70;99.90;;;;;;5114951;28;19907;-24
2022/10/24 07:29:56;;;;;;;;;;;17.70;99.90;;;;;;5114909;28;20361;-24
2022/10/24 07:32:22;;;;;;;;;;;17.70;99.90;;;;;;5115287;28;20002;-24
2022/10/24 07:34:47;;;;;;;;;;;17.70;99.90;;;;;;5114729;28;19915;-24
2022/10/24 07:37:13;;;;;;;;;;;17.70;99.90;;;;;;5114816;28;19914;-24
2022/10/24 07:39:39;;;;;;;;;;;17.60;99.90;;;;;;5114854;28;19911;-24
2022/10/24 07:42:05;;;;;;;;;;;17.70;99.90;;;;;;5114598;28;20060;-24
2022/10/24 07:44:30;;;;;;;;;;;17.70;99.90;;;;;;5114250;28;19915;-24
2022/10/24 07:46:56;;;;;;;;;;;17.70;99.90;;;;;;5114699;28;19912;-24
2022/10/24 07:49:21;;;;;;;;;;;17.70;99.90;;;;;;5113340;28;19912;-24
2022/10/24 07:51:47;;;;;;;;;;;17.70;99.90;;;;;;5114719;28;20276;-24
2022/10/24 07:54:12;;;;;;;;;;;17.70;99.90;;;;;;5114130;28;20284;-24
2022/10/24 07:56:38;;;;;;;;;;;17.70;99.90;;;;;;5114459;28;20396;-24
2022/10/24 07:59:03;;;;;;;;;;;17.70;99.90;;;;;;5114353;28;19919;-24
2022/10/24 08:01:29;;;;;;;;;;;17.70;99.90;;;;;;5114494;28;19919;-23
2022/10/24 08:03:55;;;;;;;;;;;17.70;99.90;;;;;;5113778;28;19908;-24
2022/10/24 08:06:22;;;;;;;;;;;17.70;99.90;;;;;;5114294;28;19912;-24
2022/10/24 08:08:48;;;;;;;;;;;17.70;99.90;;;;;;5113730;28;19908;-24
2022/10/24 08:11:18;;;;;;;;;;;17.70;99.90;;;;;;5114007;28;20288;-24
2022/10/24 08:13:43;;;;;;;;;;;17.70;99.90;;;;;;5113927;28;19908;-24
2022/10/24 08:16:10;;;;;;;;;;;17.70;99.90;;;;;;5114552;28;19912;-24
2022/10/24 08:18:36;;;;;;;;;;;17.70;99.90;;;;;;5114092;28;19912;-24
2022/10/24 08:21:04;;;;;;;;;;;17.70;99.90;;;;;;5114042;28;19908;-23
2022/10/24 08:23:30;;;;;;;;;;;17.70;99.90;;;;;;5114005;28;20349;-24
2022/10/24 08:25:56;;;;;;;;;;;17.60;99.90;;;;;;5113972;28;19958;-24
2022/10/24 08:28:22;;;;;;;;;;;17.70;99.90;;;;;;5114199;28;20352;-24
2022/10/24 08:30:58;;;;;;;;;;;17.70;99.90;;;;;;5113883;28;19922;-24
2022/10/24 08:33:24;;;;;;;;;;;17.70;99.90;;;;;;5113366;28;19951;-24
2022/10/24 08:35:49;;;;;;;;;;;17.70;99.90;;;;;;5113872;27;19946;-24
2022/10/24 08:38:15;;;;;;;;;;;17.70;99.90;;;;;;5113562;28;19908;-24
2022/10/24 08:40:41;;;;;;;;;;;17.70;99.90;;;;;;5113452;28;19918;-24
2022/10/24 08:43:08;;;;;;;;;;;17.70;99.90;;;;;;5113195;28;20237;-24
2022/10/24 08:45:52;;;;;;;;;;;17.70;99.90;;;;;;5113455;28;19969;-23
2022/10/24 08:48:26;;;;;;;;;;;17.70;99.90;;;;;;5113471;28;20284;-24
2022/10/24 08:50:54;;;;;;;;;;;17.60;99.90;;;;;;5113296;28;20288;-24
2022/10/24 08:53:29;;;;;;;;;;;17.70;99.90;;;;;;5112994;28;19989;-23
2022/10/24 08:55:57;;;;;;;;;;;17.70;99.90;;;;;;5113185;28;20376;-24
2022/10/24 08:58:36;;;;;;;;;;;17.70;99.90;;;;;;5113264;28;19912;-23
2022/10/24 09:01:06;;;;;;;;;;;17.70;99.90;;;;;;5113291;28;19912;-24
2022/10/24 09:03:34;;;;;;;;;;;17.70;99.90;;;;;;5112928;28;20021;-24
2022/10/24 09:06:02;;;;;;;;;;;17.60;99.90;;;;;;5113223;28;20041;-24
2022/10/24 09:08:33;;;;;;;;;;;17.60;99.90;;;;;;5113008;28;19919;-24
2022/10/24 09:11:00;;;;;;;;;;;17.70;99.90;;;;;;5113022;28;19954;-24
2022/10/24 09:13:26;;;;;;;;;;;17.70;99.90;;;;;;5112690;28;19919;-24
2022/10/24 09:15:52;;;;;;;;;;;17.70;99.90;;;;;;5113065;28;19916;-24
2022/10/24 09:18:21;;;;;;;;;;;17.60;99.90;;;;;;5112930;28;19912;-24
2022/10/24 09:20:48;;;;;;;;;;;17.70;99.90;;;;;;5111976;28;19912;-24
2022/10/24 09:23:14;;;;;;;;;;;17.70;99.90;;;;;;5112267;28;20365;-24
2022/10/24 09:25:41;;;;;;;;;;;17.70;99.90;;;;;;5112853;28;19908;-24
2022/10/24 09:28:07;;;;;;;;;;;17.70;99.90;;;;;;5112617;28;20372;-24
2022/10/24 09:30:35;;;;;;;;;;;17.70;99.90;;;;;;5112429;28;19923;-24
2022/10/24 09:33:03;;;;;;;;;;;17.70;99.90;;;;;;5112408;28;19908;-24
2022/10/24 09:35:29;;;;;;;;;;;17.70;99.90;;;;;;5112700;28;20460;-24
2022/10/24 09:38:17;;;;;;;;;;;17.70;99.90;;;;;;5112541;28;19911;-24
2022/10/24 09:40:48;;;;;;;;;;;17.70;99.90;;;;;;5112409;28;19943;-24
2022/10/24 09:43:18;;;;;;;;;;;17.70;99.90;;;;;;5112024;28;19912;-24
2022/10/24 09:45:50;;;;;;;;;;;17.70;99.90;;;;;;5112517;28;20411;-24
2022/10/24 09:48:23;;;;;;;;;;;17.70;99.90;;;;;;5112259;28;19912;-24
2022/10/24 09:50:50;;;;;;;;;;;17.70;99.90;;;;;;5112223;28;19908;-24
2022/10/24 09:53:26;;;;;;;;;;;17.70;99.90;;;;;;5111888;28;19938;-24
2022/10/24 09:55:55;;;;;;;;;;;17.70;99.90;;;;;;5112364;28;19972;-24
2022/10/24 09:58:28;;;;;;;;;;;17.60;99.90;;;;;;5111433;28;20338;-24
2022/10/24 10:00:58;;;;;;;;;;;17.70;99.90;;;;;;5112592;28;20424;-24
2022/10/24 10:03:25;;;;;;;;;;;17.70;99.90;;;;;;5112140;28;20258;-24
2022/10/24 10:06:14;;;;;;;;;;;17.70;99.90;;;;;;5112142;28;19912;-24
2022/10/24 10:08:39;;;;;;;;;;;17.70;99.90;;;;;;5111967;28;19908;-24
2022/10/24 10:11:06;;;;;;;;;;;17.70;99.90;;;;;;5111783;28;20007;-24
2022/10/24 10:13:42;;;;;;;;;;;17.60;99.90;;;;;;5111414;28;20002;-24
2022/10/24 10:16:20;;;;;;;;;;;17.60;99.90;;;;;;5111804;28;19919;-24
2022/10/24 10:18:47;;;;;;;;;;;17.70;99.90;;;;;;5110437;28;19912;-24
2022/10/24 10:21:14;;;;;;;;;;;17.70;99.90;;;;;;5112249;28;19908;-24
2022/10/24 10:23:43;;;;;;;;;;;17.70;99.90;;;;;;5111331;28;19976;-24
2022/10/24 10:26:14;;;;;;;;;;;17.70;99.90;;;;;;5111749;28;20280;-24
2022/10/24 10:29:09;;;;;;;;;;;17.70;99.90;;;;;;5112072;28;19908;-24
2022/10/24 10:31:42;;;;;;;;;;;17.70;99.90;;;;;;5093961;28;20330;-24
2022/10/24 10:34:10;;;;;;;;;;;17.70;99.90;;;;;;5111087;28;19912;-24
2022/10/24 10:36:51;;;;;;;;;;;17.70;99.90;;;;;;5111524;28;19927;-24
2022/10/24 10:39:35;;;;;;;;;;;17.70;99.90;;;;;;5111880;28;20312;-24
2022/10/24 10:42:30;;;;;;;;;;;17.70;99.90;;;;;;5111536;28;20369;-24
2022/10/24 10:45:05;;;;;;;;;;;17.70;99.90;;;;;;5038441;28;19921;-24
2022/10/24 10:47:49;;;;;;;;;;;17.70;99.90;;;;;;5111894;28;19908;-24
2022/10/24 10:50:18;;;;;;;;;;;17.70;99.90;;;;;;5111499;28;20345;-24
2022/10/24 10:52:47;;;;;;;;;;;17.70;99.90;;;;;;5111030;28;19919;-24
2022/10/24 10:55:33;;;;;;;;;;;17.60;99.90;;;;;;5111478;28;20356;-24
2022/10/24 10:58:07;;;;;;;;;;;17.70;99.90;;;;;;5111286;28;19912;-24
2022/10/24 11:00:45;;;;;;;;;;;17.70;99.90;;;;;;5111412;28;19915;-24
2022/10/24 11:03:15;;;;;;;;;;;17.60;99.90;;;;;;5111004;28;20261;-24
2022/10/24 11:05:40;;;;;;;;;;;17.70;99.90;;;;;;5111367;28;19908;-24
2022/10/24 11:08:24;;;;;;;;;;;17.60;99.90;;;;;;5111328;28;19916;-24
2022/10/24 11:10:52;;;;;;;;;;;17.60;99.90;;;;;;5109926;28;19908;-24
2022/10/24 11:13:37;;;;;;;;;;;17.70;99.90;;;;;;5110842;28;19914;-24
2022/10/24 11:16:05;;;;;;;;;;;17.70;99.90;;;;;;5111278;28;20029;-24
2022/10/24 11:18:36;;;;;;;;;;;17.60;99.90;;;;;;5111197;28;19908;-24
2022/10/24 11:21:09;;;;;;;;;;;17.70;99.90;;;;;;5110101;28;19907;-24
2022/10/24 11:23:42;;;;;;;;;;;17.70;99.90;;;;;;5110844;28;19978;-24
2022/10/24 11:26:18;;;;;;;;;;;17.60;99.90;;;;;;5111074;28;19912;-24
2022/10/24 11:28:53;;;;;;;;;;;17.60;99.90;;;;;;5111144;28;19908;-24
2022/10/24 11:31:24;;;;;;;;;;;17.60;99.90;;;;;;5110899;28;19916;-24
2022/10/24 11:33:55;;;;;;;;;;;17.60;99.90;;;;;;5110700;28;19920;-24
2022/10/24 11:36:24;;;;;;;;;;;17.60;99.90;;;;;;5111003;28;19916;-24
2022/10/24 11:39:19;;;;;;;;;;;17.60;99.90;;;;;;5110977;28;19908;-23
2022/10/24 11:42:07;;;;;;;;;;;17.60;99.90;;;;;;5093257;28;19908;-24
2022/10/24 11:44:45;;;;;;;;;;;17.60;99.90;;;;;;5072792;28;19955;-24
2022/10/24 11:47:13;;;;;;;;;;;17.60;99.90;;;;;;5115157;28;19908;-24
2022/10/24 11:49:42;;;;;;;;;;;17.60;99.90;;;;;;5114935;28;20002;-24
2022/10/24 11:52:28;;;;;;;;;;;17.60;99.90;;;;;;5114482;28;19912;-24
2022/10/24 11:55:10;;;;;;;;;;;17.60;99.90;;;;;;5114554;28;19994;-24
2022/10/24 11:57:37;;;;;;;;;;;17.60;99.90;;;;;;5114615;28;19943;-24
2022/10/24 12:00:02;;;;;;;;;;;17.60;99.90;;;;;;5114510;28;19912;-24
2022/10/24 12:02:31;;;;;;;;;;;17.60;99.90;;;;;;5113998;28;19965;-24
2022/10/24 12:04:57;;;;;;;;;;;17.60;99.90;;;;;;5114457;28;20379;-24
2022/10/24 12:07:28;;;;;;;;;;;17.60;99.90;;;;;;5114247;28;20003;-24
2022/10/24 12:09:54;;;;;;;;;;;17.50;99.90;;;;;;5114343;28;19914;-24
2022/10/24 12:12:25;;;;;;;;;;;17.50;99.90;;;;;;5114066;28;20288;-24
2022/10/24 12:15:01;;;;;;;;;;;17.50;99.90;;;;;;5114071;28;19912;-24
2022/10/24 12:17:46;;;;;;;;;;;17.50;99.90;;;;;;5114094;28;19944;-23
2022/10/24 12:20:15;;;;;;;;;;;17.50;99.90;;;;;;5113898;28;19937;-24
2022/10/24 12:22:42;;;;;;;;;;;17.50;99.90;;;;;;5113598;28;19908;-24
2022/10/24 12:25:13;;;;;;;;;;;17.50;99.90;;;;;;5112700;28;19995;-24
2022/10/24 12:27:40;;;;;;;;;;;17.50;99.90;;;;;;5113963;28;19987;-24
2022/10/24 12:30:08;;;;;;;;;;;17.50;99.90;;;;;;5114003;28;19951;-24
2022/10/24 12:32:46;;;;;;;;;;;17.50;99.90;;;;;;5113351;28;20396;-24
2022/10/24 12:35:29;;;;;;;;;;;17.60;99.90;;;;;;5113789;28;19918;-24
2022/10/24 12:37:55;;;;;;;;;;;17.60;99.90;;;;;;5113993;28;20348;-24
2022/10/24 12:40:39;;;;;;;;;;;17.50;99.90;;;;;;5113879;28;19958;-24
2022/10/24 12:43:06;;;;;;;;;;;17.50;99.90;;;;;;5113137;28;20261;-24
2022/10/24 12:45:32;;;;;;;;;;;17.50;99.90;;;;;;5113622;28;19907;-24
2022/10/24 12:47:57;;;;;;;;;;;17.50;99.90;;;;;;5113636;28;19990;-24
2022/10/24 12:50:24;;;;;;;;;;;17.50;99.90;;;;;;5113593;28;19908;-24
2022/10/24 12:53:01;;;;;;;;;;;17.50;99.90;;;;;;5113206;28;19912;-23
2022/10/24 12:55:36;;;;;;;;;;;17.50;99.90;;;;;;5113421;28;20392;-24
2022/10/24 12:58:02;;;;;;;;;;;17.50;99.90;;;;;;5113503;28;19915;-24
2022/10/24 13:00:29;;;;;;;;;;;17.50;99.90;;;;;;5113379;28;19912;-24
2022/10/24 13:03:13;;;;;;;;;;;17.50;99.90;;;;;;5112925;27;20373;-23
2022/10/24 13:05:47;;;;;;;;;;;17.50;99.90;;;;;;5113166;28;19961;-24
2022/10/24 13:08:20;;;;;;;;;;;17.50;99.90;;;;;;5112935;28;20323;-23
2022/10/24 13:11:18;;;;;;;;;;;17.50;99.90;;;;;;5118711;28;19911;-24
2022/10/24 13:14:00;;;;;;;;;;;17.50;99.90;;;;;;5069395;28;20365;-24
2022/10/24 13:16:42;;;;;;;;;;;17.50;99.90;;;;;;5112969;28;19916;-24
2022/10/24 13:19:14;;;;;;;;;;;17.50;99.90;;;;;;5113287;28;19911;-24
2022/10/24 13:21:44;;;;;;;;;;;17.50;99.90;;;;;;5112936;28;19916;-24
2022/10/24 13:24:16;;;;;;;;;;;17.50;99.90;;;;;;5112524;28;19908;-24
2022/10/24 13:26:50;;;;;;;;;;;17.60;99.90;;;;;;5112628;28;20147;-24
2022/10/24 13:29:24;;;;;;;;;;;17.60;99.90;;;;;;5112710;28;19953;-24
2022/10/24 13:31:51;;;;;;;;;;;17.50;99.90;;;;;;5113088;28;20407;-24
2022/10/24 13:34:18;;;;;;;;;;;17.60;99.90;;;;;;5110845;28;20333;-24
2022/10/24 13:36:44;;;;;;;;;;;17.50;99.90;;;;;;5112592;28;20400;-24
2022/10/24 13:39:11;;;;;;;;;;;17.60;99.90;;;;;;5112670;28;19908;-24
2022/10/24 13:41:36;;;;;;;;;;;17.60;99.90;;;;;;5112255;28;20005;-24
2022/10/24 13:44:06;;;;;;;;;;;17.60;99.90;;;;;;5111858;28;19916;-24
2022/10/24 13:46:47;;;;;;;;;;;17.50;99.90;;;;;;5112170;28;19961;-24
2022/10/24 13:49:31;;;;;;;;;;;17.60;99.90;;;;;;5112081;28;20498;-24
2022/10/24 13:52:06;;;;;;;;;;;17.60;99.90;;;;;;5111822;28;19923;-24
2022/10/24 13:54:33;;;;;;;;;;;17.50;99.90;;;;;;5111520;28;19908;-24
2022/10/24 13:56:58;;;;;;;;;;;17.50;99.90;;;;;;5111670;28;19911;-24
2022/10/24 13:59:36;;;;;;;;;;;17.50;99.90;;;;;;5112398;28;20280;-23
2022/10/24 14:02:03;;;;;;;;;;;17.30;99.90;;;;;;5112174;28;19908;-23
2022/10/24 14:04:29;;;;;;;;;;;17.30;99.90;;;;;;5111361;28;19919;-23
2022/10/24 14:07:02;;;;;;;;;;;17.30;99.90;;;;;;5111470;28;19908;-23
2022/10/24 14:09:28;;;;;;;;;;;17.40;99.90;;;;;;5111750;28;19908;-23
2022/10/24 14:11:55;;;;;;;;;;;17.40;99.90;;;;;;5111894;28;19908;-24
2022/10/24 14:14:31;;;;;;;;;;;17.50;99.90;;;;;;5111257;28;19999;-24
2022/10/24 14:17:04;;;;;;;;;;;17.50;99.90;;;;;;5111834;28;19927;-24
2022/10/24 14:19:32;;;;;;;;;;;17.50;99.90;;;;;;5112559;28;20281;-23
2022/10/24 14:21:58;;;;;;;;;;;17.40;99.90;;;;;;5111629;28;19960;-24
2022/10/24 14:24:24;;;;;;;;;;;17.40;99.90;;;;;;5111702;28;19911;-24
2022/10/24 14:26:52;;;;;;;;;;;17.40;99.90;;;;;;5111863;28;19973;-24